createdAt,value
2023-04-17T00:02:45.281Z,4.70
2023-04-17T00:08:13.411Z,4.60
2023-04-17T00:13:41.409Z,4.60
2023-04-17T00:19:09.448Z,4.60
2023-04-17T00:24:37.392Z,4.50
2023-04-17T00:30:06.680Z,4.50
2023-04-17T00:41:02.639Z,4.40
2023-04-17T00:46:31.627Z,4.40
2023-04-17T00:51:59.811Z,4.40
2023-04-17T00:57:27.860Z,4.40
2023-04-17T01:02:58.379Z,4.40
2023-04-17T01:08:26.829Z,4.40
2023-04-17T01:13:54.901Z,4.40
2023-04-17T01:19:23.654Z,4.40
2023-04-17T01:24:51.620Z,4.40
2023-04-17T01:30:20.039Z,4.30
2023-04-17T01:36:10.695Z,4.30
2023-04-17T01:41:38.792Z,4.30
2023-04-17T01:47:06.672Z,4.20
2023-04-17T01:52:34.959Z,4.20
2023-04-17T01:58:02.757Z,4.30
2023-04-17T02:03:34.834Z,4.40
2023-04-17T02:09:04.002Z,4.40
2023-04-17T02:14:31.956Z,4.50
2023-04-17T02:19:59.743Z,4.50
2023-04-17T02:25:28.951Z,4.60
2023-04-17T02:30:56.892Z,4.60
2023-04-17T02:36:24.849Z,4.60
2023-04-17T02:41:53.102Z,4.70
2023-04-17T02:47:21.098Z,4.60
2023-04-17T02:52:49.061Z,4.70
2023-04-17T02:58:16.954Z,4.70
2023-04-17T03:03:45.262Z,4.70
2023-04-17T03:09:18.226Z,4.80
2023-04-17T03:14:46.341Z,4.80
2023-04-17T03:20:16.000Z,4.90
2023-04-17T03:25:44.008Z,5.00
2023-04-17T03:31:13.251Z,5.10
2023-04-17T03:36:42.158Z,5.20
2023-04-17T03:42:14.715Z,5.20
2023-04-17T03:47:42.841Z,5.30
2023-04-17T03:53:10.992Z,5.40
2023-04-17T03:58:39.956Z,5.50
2023-04-17T04:04:10.881Z,5.50
2023-04-17T04:09:39.073Z,5.60
2023-04-17T04:15:08.949Z,5.60
2023-04-17T04:20:37.634Z,5.70
2023-04-17T04:26:16.978Z,5.70
2023-04-17T04:31:51.150Z,5.70
2023-04-17T04:37:30.253Z,5.80
2023-04-17T04:43:03.037Z,5.80
2023-04-17T04:48:37.350Z,5.70
2023-04-17T04:54:06.090Z,5.60
2023-04-17T04:59:39.979Z,5.60
2023-04-17T05:05:28.088Z,5.60
2023-04-17T05:10:57.053Z,5.60
2023-04-17T05:16:25.595Z,5.70
2023-04-17T05:21:53.812Z,5.70
2023-04-17T05:27:23.195Z,5.80
2023-04-17T05:32:51.961Z,5.90
2023-04-17T05:38:49.281Z,6.00
2023-04-17T05:44:19.652Z,6.10
2023-04-17T05:49:51.220Z,6.10
2023-04-17T05:55:20.386Z,6.10
2023-04-17T06:00:52.535Z,6.10
2023-04-17T06:06:21.002Z,6.00
2023-04-17T06:11:48.846Z,5.90
2023-04-17T06:17:17.233Z,5.80
2023-04-17T06:22:46.932Z,5.80
2023-04-17T06:28:14.758Z,5.80
2023-04-17T06:33:43.717Z,5.10
2023-04-17T06:39:11.786Z,5.80
2023-04-17T06:44:39.899Z,5.80
2023-04-17T06:50:13.759Z,5.80
2023-04-17T06:55:41.654Z,5.80
2023-04-17T07:01:12.606Z,5.90
2023-04-17T07:06:40.953Z,6.00
2023-04-17T07:12:08.966Z,6.10
2023-04-17T07:17:37.024Z,6.10
2023-04-17T07:23:04.864Z,6.10
2023-04-17T07:28:32.605Z,6.00
2023-04-17T07:34:00.831Z,6.00
2023-04-17T07:39:31.633Z,6.00
2023-04-17T07:44:59.516Z,6.10
2023-04-17T07:50:27.502Z,6.10
2023-04-17T07:55:58.044Z,6.30
2023-04-17T08:01:26.507Z,6.40
2023-04-17T08:06:54.458Z,6.50
2023-04-17T08:12:22.239Z,6.60
2023-04-17T08:17:50.430Z,6.70
2023-04-17T08:23:18.298Z,6.60
2023-04-17T08:28:47.117Z,6.60
2023-04-17T08:34:16.219Z,6.70
2023-04-17T08:39:43.973Z,6.80
2023-04-17T08:45:13.780Z,6.80
2023-04-17T08:50:45.963Z,7.00
2023-04-17T08:56:13.815Z,7.20
2023-04-17T09:02:07.394Z,7.40
2023-04-17T09:07:35.672Z,7.60
2023-04-17T09:13:03.739Z,7.90
2023-04-17T09:18:33.111Z,8.30
2023-04-17T09:24:01.130Z,8.60
2023-04-17T09:29:28.926Z,8.90
2023-04-17T09:35:00.284Z,9.10
2023-04-17T09:40:41.337Z,9.20
2023-04-17T09:46:09.256Z,9.20
2023-04-17T09:51:37.880Z,9.20
2023-04-17T09:57:10.970Z,9.30
2023-04-17T10:02:40.380Z,9.40
2023-04-17T10:08:08.361Z,9.50
2023-04-17T10:13:40.632Z,9.50
2023-04-17T10:19:32.197Z,9.80
2023-04-17T10:25:20.678Z,10.00
2023-04-17T10:30:56.352Z,10.20
2023-04-17T10:36:39.743Z,10.30
2023-04-17T10:47:36.208Z,10.30
2023-04-17T10:53:04.972Z,10.30
2023-04-17T10:58:32.978Z,10.30
2023-04-17T11:09:29.814Z,10.50
2023-04-17T11:15:04.449Z,10.60
2023-04-17T11:20:37.932Z,10.80
2023-04-17T11:26:13.988Z,10.90
2023-04-17T11:31:48.793Z,11.10
2023-04-17T11:37:19.978Z,11.20
2023-04-17T11:42:49.595Z,11.50
2023-04-17T11:48:24.675Z,11.80
2023-04-17T11:53:52.550Z,12.00
2023-04-17T11:59:33.964Z,12.20
2023-04-17T12:05:20.460Z,12.40
2023-04-17T12:10:48.463Z,12.50
2023-04-17T12:16:16.260Z,12.50
2023-04-17T12:21:44.148Z,12.60
2023-04-17T12:27:11.988Z,12.60
2023-04-17T12:32:39.951Z,12.70
2023-04-17T12:38:07.799Z,12.90
2023-04-17T12:43:35.837Z,13.10
2023-04-17T12:49:03.645Z,13.70
2023-04-17T12:54:33.253Z,14.10
2023-04-17T13:00:01.641Z,14.30
2023-04-17T13:05:30.494Z,14.30
2023-04-17T13:10:59.909Z,14.20
2023-04-17T13:16:27.770Z,14.00
2023-04-17T13:21:55.591Z,14.30
2023-04-17T13:27:23.453Z,14.50
2023-04-17T13:32:51.462Z,14.60
2023-04-17T13:38:19.855Z,14.70
2023-04-17T13:43:47.776Z,15.10
2023-04-17T13:49:15.757Z,15.40
2023-04-17T13:54:43.533Z,15.30
2023-04-17T14:00:12.325Z,14.80
2023-04-17T14:05:40.060Z,14.30
2023-04-17T14:11:07.930Z,14.00
2023-04-17T14:16:36.270Z,14.10
2023-04-17T14:22:04.151Z,14.00
2023-04-17T14:27:31.969Z,14.30
2023-04-17T14:33:00.850Z,15.30
2023-04-17T14:38:28.788Z,14.50
2023-04-17T14:43:58.089Z,14.20
2023-04-17T14:49:25.959Z,14.20
2023-04-17T14:54:53.736Z,14.60
2023-04-17T15:00:21.921Z,14.10
2023-04-17T15:05:49.974Z,13.00
2023-04-17T15:11:17.866Z,12.20
2023-04-17T15:16:45.760Z,11.50
2023-04-17T15:22:13.686Z,11.10
2023-04-17T15:27:41.454Z,10.90
2023-04-17T15:33:10.396Z,10.90
2023-04-17T15:38:38.406Z,10.90
2023-04-17T15:44:06.533Z,10.90
2023-04-17T15:49:34.392Z,10.90
2023-04-17T15:55:02.182Z,10.90
2023-04-17T16:00:30.051Z,11.00
2023-04-17T16:05:57.939Z,11.10
2023-04-17T16:11:25.950Z,11.20
2023-04-17T16:16:53.848Z,11.00
2023-04-17T16:22:21.819Z,10.50
2023-04-17T16:27:49.965Z,10.20
2023-04-17T16:33:19.216Z,10.00
2023-04-17T16:38:50.496Z,9.80
2023-04-17T16:49:50.135Z,9.80
2023-04-17T16:55:19.090Z,9.80
2023-04-17T17:01:13.291Z,9.80
2023-04-17T17:06:41.848Z,9.80
2023-04-17T17:12:14.607Z,9.80
2023-04-17T17:18:08.237Z,9.80
2023-04-17T17:23:40.770Z,9.80
2023-04-17T17:29:13.565Z,9.60
2023-04-17T17:34:48.197Z,9.60
2023-04-17T17:40:16.369Z,9.50
2023-04-17T17:51:14.884Z,9.20
2023-04-17T17:56:44.861Z,9.10
2023-04-17T18:02:13.101Z,8.90
2023-04-17T18:07:44.607Z,8.90
2023-04-17T18:13:13.548Z,8.90
2023-04-17T18:18:41.549Z,8.90
2023-04-17T18:24:14.507Z,8.80
2023-04-17T18:29:49.088Z,8.70
2023-04-17T18:35:22.294Z,8.70
2023-04-17T18:40:57.492Z,8.70
2023-04-17T18:46:54.087Z,8.70
2023-04-17T18:52:21.970Z,8.60
2023-04-17T18:57:50.992Z,8.60
2023-04-17T19:03:18.870Z,8.50
2023-04-17T19:08:46.688Z,8.50
2023-04-17T19:14:14.741Z,8.50
2023-04-17T19:19:43.191Z,8.50
2023-04-17T19:25:13.131Z,8.50
2023-04-17T19:30:41.034Z,8.50
2023-04-17T19:36:09.042Z,8.50
2023-04-17T19:41:37.794Z,8.50
2023-04-17T19:47:06.022Z,8.50
2023-04-17T19:52:34.083Z,8.50
2023-04-17T19:58:02.384Z,8.50
2023-04-17T20:03:32.646Z,8.50
2023-04-17T20:09:03.333Z,8.60
2023-04-17T20:14:31.898Z,8.60
2023-04-17T20:19:59.909Z,8.60
2023-04-17T20:25:28.239Z,8.60
2023-04-17T20:30:56.490Z,8.50
2023-04-17T20:36:24.787Z,8.50
2023-04-17T20:41:52.896Z,8.50
2023-04-17T20:47:21.186Z,8.50
2023-04-17T20:52:49.145Z,8.60
2023-04-17T20:58:17.294Z,8.60
2023-04-17T21:03:45.462Z,8.60
2023-04-17T21:09:16.536Z,8.50
2023-04-17T21:14:44.806Z,8.50
2023-04-17T21:20:13.919Z,8.50
2023-04-17T21:25:42.268Z,8.50
2023-04-17T21:31:14.949Z,8.50
2023-04-17T21:36:43.242Z,8.50
2023-04-17T21:42:11.514Z,8.50
2023-04-17T21:47:39.575Z,8.50
2023-04-17T21:53:09.325Z,8.50
2023-04-17T21:58:37.252Z,8.50
2023-04-17T22:04:05.332Z,8.50
2023-04-17T22:09:33.423Z,8.40
2023-04-17T22:15:02.317Z,8.40
2023-04-17T22:20:30.564Z,8.40
2023-04-17T22:26:02.156Z,8.40
2023-04-17T22:31:30.622Z,8.30
2023-04-17T22:36:58.865Z,8.30
2023-04-17T22:42:27.056Z,8.30
2023-04-17T22:47:55.237Z,8.20
2023-04-17T22:53:23.644Z,8.10
2023-04-17T22:58:51.979Z,8.10
2023-04-17T23:04:22.957Z,8.10
2023-04-17T23:09:51.051Z,8.00
2023-04-17T23:15:18.987Z,7.90
2023-04-17T23:20:47.515Z,7.90
2023-04-17T23:26:16.798Z,7.80
2023-04-17T23:31:45.748Z,7.80
2023-04-17T23:37:13.702Z,7.70
2023-04-17T23:42:41.732Z,7.70
2023-04-17T23:48:09.955Z,7.60
2023-04-17T23:53:37.924Z,7.60
2023-04-17T23:59:05.971Z,7.50
